Centerdale, Iowa
Current Conditions -  °F | °C
As of 7:52 PM on Friday 28 Nov 2014 (Local Time) from KIOW Reporting Station
Clear Clear  
Wind Chill: 27°   Ceiling: Unl
Heat Index: 32°   Visibility: 8mi
Dew Point: 29°   Wind: 5mph
Humidity: 88%   Direction: 90°E
Pressure: 29.83"   Gusts: NA
Location:  41.5542°N, 91.2913°W
Report Text: KIOW 290152Z AUTO 09004KT 8SM CLR 00/M02 A2983 RMK AO2 SLP109 T00001017
Loading
Personal Weather Stations






























Interactive Weather Map New forecast layout! Learn more

10-Day Weather Forecast

Advertisements
Track Severe Weather on mobile